Leary, Georgia
Current Conditions -  °F | °C
As of 9:53 PM on Wednesday 22 Oct 2014 (Local Time) from KABY Reporting Station
Clear Clear  
Wind Chill: 53°   Ceiling: Unl
Heat Index: 53°   Visibility: 10mi
Dew Point: 47°   Wind: 5mph
Humidity: 80%   Direction: 360°N
Pressure: 30.09"   Gusts: NA
Location:  31.49°N, 84.51°W
Report Text: KABY 230153Z 36004KT 10SM CLR 12/08 A3009 RMK AO2 SLP189 T01170083 PWINO $
Loading
Personal Weather Stations






























Interactive Weather Map
Tropical Storm Tracking
New forecast layout! Learn more

10-Day Weather Forecast

Advertisements
Track Severe Weather on mobile